Weather History for Buffalo, WY

Change the Weather History Date:

Sunday, February 10, 2013

  Actual Average Record
Temperature  
Mean Temperature 18 °F 27 °F  
Max Temperature 26 °F 37 °F 53 °F (1999)
Min Temperature 10 °F 18 °F -5 °F (2008)
Degree Days  
Heating Degree Days 47 38  
Month to date heating degree days 356 380  
Since 1 July heating degree days 4234 4587  
Cooling Degree Days 0 0  
Month to date cooling degree days 0 0  
Year to date cooling degree days 0 0  
Moisture  
Dew Point 16 °F    
Average Humidity 80    
Maximum Humidity 92    
Minimum Humidity 67    
Precipitation  
Precipitation 0.01 in 0.01 in 0.15 in (2012)
Month to date precipitation 0.04 0.13  
Year to date precipitation 0.52 0.55  
Sea Level Pressure  
Sea Level Pressure 29.90 in    
Wind  
Wind Speed 25 mph (NNW)    
Max Wind Speed 43 mph    
Max Gust Speed 52 mph    
Visibility 3 miles    
Events Fog , Snow    
T = Trace of Precipitation, MM = Missing Value Source: NWS Daily Summary

Daily Weather History Graph

Daily Weather History Graph

Search for Another Location

Airport:

Trip Planner

Search our weather history database for the weather conditions in past years. The results will help you decide how hot, cold, wet, or windy it might be!

Date:

Astronomy

Feb. 10, 2013 Rise Set
Actual Time 7:13 AM MST 5:29 PM MST
Civil Twilight 6:43 AM MST 5:59 PM MST
Nautical Twilight 6:09 AM MST 6:33 PM MST
Astronomical Twilight 5:35 AM MST 7:07 PM MST
Moon 7:01 AM MST (2/10) 6:27 PM MST (2/10)
Length of Visible Light 11h 16m
Length of Day
10h 16m
New Moon, 0% of the Moon is Illuminated
Feb 10
New Moon
Feb 17
First Quarter
Feb 25
Full
Mar 4
Last Quarter
Mar 11
New

Hourly Weather History & Observations

Time (MST) Temp. Windchill Dew Point Humidity Pressure Visibility Wind Dir Wind Speed Gust Speed Precip Events Conditions
12:05 AM 24.8 °F 11.1 °F 21.2 °F 86% 29.75 in 2.5 mi NNW 18.4 mph 25.3 mph 0.00 in Snow Light Snow
12:12 AM 24.8 °F 11.1 °F 21.2 °F 86% 29.75 in 5.0 mi NW 18.4 mph 26.5 mph 0.00 in Snow Light Snow
12:25 AM 24.8 °F 10.3 °F 21.2 °F 86% 29.75 in 6.0 mi NW 20.7 mph 29.9 mph 0.00 in   Mostly Cloudy
12:53 AM 26.1 °F 13.6 °F 21.0 °F 81% 29.83 in 9.0 mi NNW 16.1 mph 27.6 mph 0.00 in   Overcast
1:53 AM 25.0 °F 12.6 °F 21.9 °F 88% 29.83 in 5.0 mi North 15.0 mph 24.2 mph 0.00 in Snow Light Snow
2:09 AM 24.8 °F 11.1 °F 23.0 °F 93% 29.76 in 2.0 mi North 18.4 mph 24.2 mph 0.00 in Snow Light Snow
2:29 AM 24.8 °F 10.0 °F 21.2 °F 86% 29.76 in 2.0 mi North 21.9 mph 35.7 mph 0.00 in Snow Light Snow
2:40 AM 24.8 °F 9.6 °F 21.2 °F 86% 29.76 in 1.8 mi North 23.0 mph 35.7 mph 0.00 in Snow Light Snow
2:45 AM 24.8 °F 9.3 °F 21.2 °F 86% 29.76 in 1.8 mi North 24.2 mph 35.7 mph 0.00 in Snow Light Snow
2:48 AM 24.8 °F 9.6 °F 21.2 °F 86% 29.76 in 2.0 mi North 23.0 mph 35.7 mph 0.00 in Snow Light Snow
2:53 AM 24.1 °F 8.3 °F 21.0 °F 88% 29.84 in 1.8 mi North 24.2 mph 35.7 mph 0.00 in Snow Light Snow
3:32 AM 24.8 °F 10.3 °F 21.2 °F 86% 29.76 in 2.5 mi NNW 20.7 mph 27.6 mph 0.00 in Snow Light Snow
3:39 AM 24.8 °F 10.7 °F 19.4 °F 80% 29.76 in 3.0 mi NW 19.6 mph 33.4 mph 0.00 in Snow Light Snow
3:49 AM 24.8 °F 9.3 °F 19.4 °F 80% 29.76 in 2.5 mi NNW 24.2 mph 31.1 mph 0.00 in Snow Light Snow
3:53 AM 24.1 °F 9.0 °F 19.9 °F 84% 29.85 in 2.5 mi NNW 21.9 mph 31.1 mph 0.00 in Snow Light Snow
4:05 AM 24.8 °F 10.0 °F 21.2 °F 86% 29.76 in 1.5 mi NNW 21.9 mph 32.2 mph 0.00 in Snow Light Snow
4:13 AM 24.8 °F 11.5 °F 21.2 °F 86% 29.77 in 1.2 mi NNW 17.3 mph 36.8 mph 0.00 in Snow Light Snow
4:53 AM 24.1 °F 9.0 °F 21.0 °F 88% 29.87 in 1.5 mi NNW 21.9 mph 36.8 mph 0.00 in Snow Light Snow
5:05 AM 24.8 °F 10.7 °F 21.2 °F 86% 29.79 in 0.8 mi NNW 19.6 mph 31.1 mph 0.00 in Snow Light Snow
5:22 AM 24.8 °F 9.3 °F 21.2 °F 86% 29.79 in 0.8 mi NNW 24.2 mph 27.6 mph 0.00 in Snow Light Snow
5:53 AM 24.1 °F 8.7 °F 21.0 °F 88% 29.89 in 0.8 mi NNW 23.0 mph 35.7 mph 0.00 in Snow Light Snow
6:39 AM 23.0 °F 6.0 °F 19.4 °F 86% 29.80 in 0.5 mi NNW 27.6 mph 41.4 mph 0.00 in Fog , Snow Snow
6:46 AM 23.0 °F 6.0 °F 19.4 °F 86% 29.81 in 0.5 mi NNW 27.6 mph 41.4 mph 0.00 in Fog , Snow Snow
6:53 AM 23.0 °F 6.0 °F 19.0 °F 85% 29.91 in 0.8 mi NNW 27.6 mph 40.3 mph 0.00 in Snow Light Snow
7:53 AM 21.9 °F 3.4 °F 19.0 °F 89% 29.93 in 0.2 mi NW 32.2 mph 46.0 mph 0.00 in Fog , Snow Snow
8:36 AM 21.2 °F 2.4 °F 17.6 °F 86% 29.84 in 0.2 mi NNW 32.2 mph 41.4 mph 0.00 in Fog , Snow Light Snow
8:53 AM 21.9 °F 3.9 °F 17.1 °F 82% 29.96 in 0.2 mi NNW 29.9 mph 40.3 mph 0.00 in Snow Heavy Snow
9:10 AM 23.0 °F 6.0 °F 17.6 °F 80% 29.85 in 0.8 mi NW 27.6 mph 38.0 mph 0.00 in Snow Light Snow
9:42 AM 23.0 °F 6.0 °F 17.6 °F 80% 29.85 in 1.0 mi NW 27.6 mph 39.1 mph 0.00 in Snow Light Snow
9:51 AM 23.0 °F 6.0 °F 17.6 °F 80% 29.86 in 0.8 mi NNW 27.6 mph 43.7 mph 0.00 in Snow Light Snow
9:53 AM 23.0 °F 6.3 °F 17.1 °F 78% 29.96 in 0.8 mi NW 26.5 mph 43.7 mph 0.00 in Snow Light Snow
10:04 AM 21.2 °F 4.2 °F 17.6 °F 86% 29.86 in 0.2 mi NNW 25.3 mph 40.3 mph 0.00 in Fog , Snow Light Snow
10:23 AM 19.4 °F -0.8 °F 15.8 °F 86% 29.87 in 0.2 mi NNW 35.7 mph 47.2 mph 0.00 in Fog , Snow Snow
10:33 AM 19.4 °F -1.3 °F 15.8 °F 86% 29.87 in 0.2 mi NNW 38.0 mph 48.3 mph 0.00 in Snow Heavy Snow
10:53 AM 19.9 °F -0.1 °F 16.0 °F 85% 29.99 in 0.2 mi NNW 35.7 mph 47.2 mph 0.00 in Fog , Snow Light Snow
11:09 AM 19.4 °F -0.3 °F 15.8 °F 86% 29.86 in 0.2 mi NNW 33.4 mph 48.3 mph 0.01 in Fog , Snow Light Snow
11:28 AM 19.4 °F -0.8 °F 15.8 °F 86% 29.86 in 0.2 mi NNW 35.7 mph 50.6 mph 0.01 in Fog , Snow Light Freezing Fog
11:49 AM 19.4 °F -0.3 °F 15.8 °F 86% 29.85 in 0.2 mi NNW 33.4 mph 44.9 mph 0.01 in Fog , Snow Light Snow
11:53 AM 19.9 °F -0.3 °F 15.1 °F 81% 29.97 in 0.2 mi NNW 36.8 mph 44.9 mph 0.01 in Snow Heavy Snow
12:23 PM 19.4 °F -0.3 °F 15.8 °F 86% 29.86 in 0.2 mi North 33.4 mph 46.0 mph 0.00 in Snow Heavy Snow
12:53 PM 19.0 °F -2.1 °F 12.9 °F 77% 29.97 in 0.2 mi North 39.1 mph 49.5 mph 0.00 in Snow Blowing Snow
1:06 PM 19.4 °F -1.1 °F 12.2 °F 74% 29.85 in 0.8 mi North 36.8 mph 46.0 mph N/A Snow Blowing Snow
1:29 PM 19.4 °F -0.0 °F 12.2 °F 74% 29.85 in 0.8 mi North 32.2 mph 43.7 mph 0.00 in Snow Blowing Snow
1:53 PM 19.0 °F -2.1 °F 12.9 °F 77% 29.97 in 0.5 mi North 39.1 mph 47.2 mph 0.00 in Snow Blowing Snow
2:26 PM 19.4 °F -0.8 °F 12.2 °F 74% 29.85 in 1.0 mi North 35.7 mph 46.0 mph 0.00 in   Unknown
2:33 PM 19.4 °F -1.8 °F 12.2 °F 74% 29.85 in 0.8 mi North 40.3 mph 51.8 mph 0.00 in   Unknown
2:42 PM 19.4 °F -0.8 °F 12.2 °F 74% 29.86 in 1.0 mi North 35.7 mph 47.2 mph 0.00 in Snow Blowing Snow
2:48 PM 19.4 °F 0.2 °F 12.2 °F 74% 29.86 in 2.0 mi North 31.1 mph 43.7 mph 0.00 in Snow Blowing Snow
2:53 PM 19.0 °F -0.8 °F 12.0 °F 74% 30.00 in 3.0 mi North 33.4 mph 43.7 mph 0.00 in Snow Blowing Snow
3:53 PM 19.0 °F -1.3 °F 10.9 °F 71% 30.01 in 10.0 mi North 35.7 mph 42.6 mph N/A   Clear
4:53 PM 18.0 °F -0.8 °F 10.0 °F 71% 30.04 in 10.0 mi NNW 27.6 mph 39.1 mph N/A   Clear
5:45 PM 15.8 °F -3.4 °F 12.2 °F 86% 29.92 in 9.0 mi NNW 26.5 mph 38.0 mph N/A   Partly Cloudy
5:53 PM 16.0 °F -4.4 °F 12.9 °F 88% 30.06 in 5.0 mi NNW 31.1 mph 40.3 mph N/A   Scattered Clouds
6:03 PM 15.8 °F -3.1 °F 12.2 °F 86% 29.93 in 5.0 mi North 25.3 mph 39.1 mph 0.00 in Snow Light Snow
6:37 PM 15.8 °F -2.7 °F 12.2 °F 86% 29.95 in 4.0 mi North 24.2 mph 35.7 mph 0.00 in Snow Light Snow
6:53 PM 16.0 °F -3.8 °F 10.9 °F 81% 30.10 in 4.0 mi North 28.8 mph 34.5 mph 0.00 in Snow Light Snow
7:42 PM 15.8 °F -3.1 °F 10.4 °F 79% 29.97 in 5.0 mi North 25.3 mph 35.7 mph 0.00 in Snow Light Snow
7:53 PM 15.1 °F -3.3 °F 10.9 °F 84% 30.13 in 4.0 mi North 23.0 mph 34.5 mph 0.00 in Snow Light Snow
8:13 PM 14.0 °F -3.4 °F 10.4 °F 86% 29.99 in 4.0 mi North 19.6 mph 27.6 mph 0.00 in Snow Light Snow
8:40 PM 14.0 °F -0.8 °F 10.4 °F 86% 30.00 in 9.0 mi North 13.8 mph 23.0 mph 0.00 in   Mostly Cloudy
8:48 PM 14.0 °F -1.4 °F 10.4 °F 86% 30.00 in 10.0 mi North 15.0 mph 24.2 mph 0.00 in   Overcast
8:53 PM 14.0 °F -2.5 °F 10.0 °F 84% 30.17 in 10.0 mi North 17.3 mph 24.2 mph 0.00 in   Overcast
9:53 PM 12.9 °F -2.2 °F 9.0 °F 84% 30.17 in 9.0 mi North 13.8 mph 24.2 mph N/A   Clear
10:04 PM 12.2 °F -1.0 °F 8.6 °F 85% 30.01 in 8.0 mi NNW 10.4 mph 23.0 mph N/A   Scattered Clouds
10:53 PM 12.9 °F 2.6 °F 10.0 °F 88% 30.18 in 8.0 mi NW 6.9 mph - N/A   Mostly Cloudy
11:53 PM 10.9 °F - 6.1 °F 81% 30.19 in 10.0 mi Calm Calm - N/A   Scattered Clouds